Time;durP1;ratioP1;P1;durP2;ratioP2;P2;SDS_P1;SDS_P2;PMS_P1;PMS_P2;Temp;Humidity;BMP_temperature;BMP_pressure;BME280_temperature;BME280_humidity;BME280_pressure;Samples;Min_cycle;Max_cycle;Signal;HPM_P1;HPM_P2
2022/05/06 00:01:08;;;;;;;43.58;21.17;;;14.10;99.90;;;;;;6261995;28;20136;-87
2022/05/06 00:04:11;;;;;;;47.72;22.23;;;14.10;99.90;;;;;;6258181;28;20073;-86
2022/05/06 00:07:13;;;;;;;55.33;24.52;;;14.10;99.90;;;;;;6260473;28;20059;-86
2022/05/06 00:10:15;;;;;;;63.20;24.05;;;14.10;99.90;;;;;;6260776;28;20065;-87
2022/05/06 00:13:18;;;;;;;50.85;23.55;;;14.10;99.90;;;;;;6259101;28;20041;-85
2022/05/06 00:16:20;;;;;;;47.10;22.27;;;14.10;99.90;;;;;;6257927;28;20687;-87
2022/05/06 00:19:21;;;;;;;55.85;25.30;;;14.10;99.90;;;;;;6257876;28;20077;-86
2022/05/06 00:22:23;;;;;;;50.67;23.48;;;14.10;99.90;;;;;;6258290;28;20506;-87
2022/05/06 00:25:25;;;;;;;56.83;24.45;;;14.10;99.90;;;;;;6256355;28;20049;-86
2022/05/06 00:28:28;;;;;;;51.20;21.65;;;14.10;99.90;;;;;;6256940;28;20503;-86
2022/05/06 00:31:30;;;;;;;53.20;23.13;;;14.10;99.90;;;;;;6256594;28;20715;-86
2022/05/06 00:34:32;;;;;;;59.95;26.15;;;14.10;99.90;;;;;;6257934;28;20184;-87
2022/05/06 00:37:34;;;;;;;47.13;23.75;;;14.10;99.90;;;;;;6256880;28;20128;-86
2022/05/06 00:40:35;;;;;;;55.42;24.92;;;14.10;99.90;;;;;;6257281;28;20051;-86
2022/05/06 00:43:40;;;;;;;47.75;21.88;;;14.10;99.90;;;;;;6257187;28;20125;-84
2022/05/06 00:46:42;;;;;;;57.13;22.08;;;14.10;99.90;;;;;;6258047;28;20048;-86
2022/05/06 00:49:44;;;;;;;55.22;22.50;;;14.10;99.90;;;;;;6256597;28;20049;-86
2022/05/06 00:52:46;;;;;;;65.68;23.77;;;14.10;99.90;;;;;;6255993;28;20061;-85
2022/05/06 00:55:49;;;;;;;52.75;22.77;;;14.10;99.90;;;;;;6254883;28;20502;-85
2022/05/06 00:58:53;;;;;;;53.28;22.55;;;14.20;99.90;;;;;;6254902;28;20534;-86
2022/05/06 01:01:55;;;;;;;49.28;22.55;;;14.10;99.90;;;;;;6256351;28;20422;-85
2022/05/06 01:04:57;;;;;;;48.75;21.23;;;14.10;99.90;;;;;;6249376;28;20059;-86
2022/05/06 01:07:59;;;;;;;48.15;22.17;;;14.10;99.90;;;;;;6254584;28;20065;-86
2022/05/06 01:11:01;;;;;;;50.60;21.35;;;14.10;99.90;;;;;;6256530;28;20140;-85
2022/05/06 01:14:04;;;;;;;51.60;22.60;;;14.10;99.90;;;;;;6254599;28;20075;-85
2022/05/06 01:17:08;;;;;;;52.50;22.45;;;14.10;99.90;;;;;;6255243;28;20045;-84
2022/05/06 01:20:11;;;;;;;48.65;22.42;;;14.00;99.90;;;;;;6254210;28;20100;-85
2022/05/06 01:23:14;;;;;;;50.85;23.17;;;14.00;99.90;;;;;;6253391;28;20614;-86
2022/05/06 01:26:16;;;;;;;50.92;21.55;;;14.00;99.90;;;;;;6254666;28;20056;-86
2022/05/06 01:29:18;;;;;;;43.83;22.38;;;14.00;99.90;;;;;;6253981;28;20042;-86
2022/05/06 01:32:22;;;;;;;45.70;20.98;;;14.00;99.90;;;;;;6253788;28;20037;-85
2022/05/06 01:35:27;;;;;;;49.85;21.80;;;13.90;99.90;;;;;;6254658;28;20053;-86
2022/05/06 01:38:37;;;;;;;53.42;20.90;;;13.90;99.90;;;;;;6254334;28;20530;-86
2022/05/06 01:41:43;;;;;;;47.60;21.10;;;14.00;99.90;;;;;;6254054;28;20050;-86
2022/05/06 01:44:47;;;;;;;49.75;21.27;;;14.00;99.90;;;;;;6254577;28;20061;-87
2022/05/06 01:47:51;;;;;;;54.60;21.95;;;14.00;99.90;;;;;;6253839;28;20507;-86
2022/05/06 01:50:54;;;;;;;55.25;23.75;;;14.10;99.90;;;;;;6254758;28;20067;-86
2022/05/06 01:53:57;;;;;;;52.15;21.35;;;14.10;99.90;;;;;;6255816;28;20041;-85
2022/05/06 01:57:00;;;;;;;49.50;21.80;;;14.10;99.90;;;;;;6256045;28;20491;-85
2022/05/06 02:00:02;;;;;;;47.70;20.42;;;14.00;99.90;;;;;;6251033;28;20111;-86
2022/05/06 02:03:05;;;;;;;56.50;21.88;;;14.00;99.90;;;;;;6252562;28;20045;-86
2022/05/06 02:06:06;;;;;;;60.42;23.35;;;14.00;99.90;;;;;;6251355;28;20388;-83
2022/05/06 02:09:09;;;;;;;49.22;20.33;;;14.10;99.90;;;;;;6250663;28;20037;-86
2022/05/06 02:12:11;;;;;;;47.78;21.77;;;14.10;99.90;;;;;;6251250;28;20599;-86
2022/05/06 02:15:14;;;;;;;49.08;21.33;;;14.10;99.90;;;;;;6251457;28;20128;-83
2022/05/06 02:18:16;;;;;;;54.90;22.73;;;14.10;99.90;;;;;;6252036;28;20131;-85
2022/05/06 02:21:18;;;;;;;56.35;22.35;;;14.10;99.90;;;;;;6251783;28;20045;-84
2022/05/06 02:24:21;;;;;;;48.95;21.40;;;14.10;99.90;;;;;;6252031;28;20085;-85
2022/05/06 02:27:23;;;;;;;55.33;22.50;;;14.10;99.90;;;;;;6251197;28;20490;-85
2022/05/06 02:33:44;;;;;;;51.45;21.58;;;14.20;99.90;;;;;;6251130;28;20041;-84
2022/05/06 02:36:47;;;;;;;55.85;21.75;;;14.20;99.90;;;;;;6249897;28;20052;-85
2022/05/06 02:39:50;;;;;;;47.75;20.42;;;14.10;99.90;;;;;;6249730;28;20049;-84
2022/05/06 02:42:52;;;;;;;48.75;21.77;;;14.20;99.90;;;;;;6248660;28;20551;-86
2022/05/06 02:45:54;;;;;;;47.55;21.08;;;14.10;99.90;;;;;;6250424;28;20179;-86
2022/05/06 02:48:55;;;;;;;47.88;20.83;;;14.10;99.90;;;;;;6249659;28;20114;-85
2022/05/06 02:51:57;;;;;;;48.45;20.77;;;14.20;99.90;;;;;;6252088;28;20053;-85
2022/05/06 02:55:00;;;;;;;50.83;20.50;;;14.20;99.90;;;;;;6252974;28;20100;-85
2022/05/06 02:58:03;;;;;;;45.38;20.73;;;14.20;99.90;;;;;;6251943;28;20053;-86
2022/05/06 03:01:05;;;;;;;46.85;19.83;;;14.10;99.90;;;;;;6253048;28;20052;-86
2022/05/06 03:04:08;;;;;;;49.70;21.25;;;14.10;99.90;;;;;;6252602;28;20041;-84
2022/05/06 03:07:10;;;;;;;48.78;19.67;;;14.10;99.90;;;;;;6253443;28;20104;-85
2022/05/06 03:10:13;;;;;;;47.65;20.42;;;14.10;99.90;;;;;;6255446;28;20059;-86
2022/05/06 03:13:15;;;;;;;43.72;19.95;;;14.00;99.90;;;;;;6253247;28;20045;-86
2022/05/06 03:16:17;;;;;;;47.78;21.70;;;14.00;99.90;;;;;;6253374;28;20046;-87
2022/05/06 03:19:19;;;;;;;53.15;19.85;;;14.00;99.90;;;;;;6258983;28;20049;-86
2022/05/06 03:22:21;;;;;;;48.75;21.83;;;13.90;99.90;;;;;;6259337;28;20053;-87
2022/05/06 03:25:24;;;;;;;42.70;19.02;;;14.00;99.90;;;;;;6257540;28;20105;-87
2022/05/06 03:28:26;;;;;;;53.33;21.77;;;14.00;99.90;;;;;;6256857;28;20052;-86
2022/05/06 03:31:28;;;;;;;45.22;18.70;;;14.00;99.90;;;;;;6254974;28;20446;-84
2022/05/06 03:34:31;;;;;;;46.38;20.08;;;14.00;99.90;;;;;;6253463;28;20136;-84
2022/05/06 03:37:33;;;;;;;52.53;21.88;;;14.00;99.90;;;;;;6252460;28;20092;-84
2022/05/06 03:40:36;;;;;;;50.83;19.05;;;14.00;99.90;;;;;;6250874;28;20061;-84
2022/05/06 03:43:38;;;;;;;47.85;20.33;;;13.90;99.90;;;;;;6252964;28;20503;-86
2022/05/06 03:46:40;;;;;;;53.10;21.83;;;14.00;99.90;;;;;;6252398;28;20056;-86
2022/05/06 03:49:42;;;;;;;55.90;20.83;;;14.00;99.90;;;;;;6251023;28;20073;-84
2022/05/06 03:52:42;;;;;;;56.00;20.83;;;14.00;99.90;;;;;;6252124;28;20048;-84
2022/05/06 03:55:46;;;;;;;46.95;19.95;;;14.00;99.90;;;;;;6255409;28;20052;-84
2022/05/06 03:58:48;;;;;;;55.17;20.48;;;13.90;99.90;;;;;;6255932;28;20113;-84
2022/05/06 04:01:50;;;;;;;49.13;18.90;;;13.90;99.90;;;;;;6256894;28;20392;-84
2022/05/06 04:04:52;;;;;;;47.55;20.80;;;14.00;99.90;;;;;;6255961;28;20041;-84
2022/05/06 04:07:54;;;;;;;41.63;18.92;;;14.00;99.90;;;;;;6253578;28;20167;-86
2022/05/06 04:10:57;;;;;;;50.75;20.65;;;14.00;99.90;;;;;;6254343;28;20046;-84
2022/05/06 04:13:59;;;;;;;56.60;20.77;;;14.00;99.90;;;;;;6253719;28;20392;-87
2022/05/06 04:17:02;;;;;;;48.83;19.85;;;14.00;99.90;;;;;;6253860;28;20073;-86
2022/05/06 04:23:32;;;;;;;40.95;17.95;;;14.00;99.90;;;;;;6253305;28;20041;-83
2022/05/06 04:26:35;;;;;;;40.15;19.98;;;14.00;99.90;;;;;;6254793;28;20049;-86
2022/05/06 04:29:36;;;;;;;55.28;20.25;;;14.00;99.90;;;;;;6254771;28;20056;-84
2022/05/06 04:32:39;;;;;;;40.80;17.77;;;14.00;99.90;;;;;;6255305;28;20122;-85
2022/05/06 04:35:41;;;;;;;49.20;19.55;;;14.00;99.90;;;;;;6254128;28;20043;-86
2022/05/06 04:38:42;;;;;;;43.47;20.23;;;14.00;99.90;;;;;;6254803;28;20057;-85
2022/05/06 04:41:47;;;;;;;47.55;23.42;;;14.00;99.90;;;;;;6254823;28;20145;-86
2022/05/06 04:44:49;;;;;;;49.58;19.40;;;14.00;99.90;;;;;;6254880;28;20046;-86
2022/05/06 04:47:50;;;;;;;63.47;18.10;;;14.00;99.90;;;;;;6254225;28;20042;-86
2022/05/06 04:50:52;;;;;;;36.45;17.63;;;14.00;99.90;;;;;;6254261;28;20410;-85
2022/05/06 04:53:55;;;;;;;40.05;18.58;;;14.10;99.90;;;;;;6254439;28;20042;-85
2022/05/06 04:56:58;;;;;;;37.22;17.40;;;14.10;99.90;;;;;;6255441;28;20049;-86
2022/05/06 05:00:00;;;;;;;44.53;17.17;;;14.10;99.90;;;;;;6254964;28;20041;-86
2022/05/06 05:03:03;;;;;;;44.25;18.33;;;14.00;99.90;;;;;;6255860;28;20049;-87
2022/05/06 05:06:06;;;;;;;48.38;19.17;;;14.00;99.90;;;;;;6256189;28;20422;-84
2022/05/06 05:09:07;;;;;;;37.17;17.92;;;14.10;99.90;;;;;;6255920;28;20418;-86
2022/05/06 05:12:11;;;;;;;42.58;17.40;;;14.10;99.90;;;;;;6256785;28;20049;-85
2022/05/06 05:15:13;;;;;;;41.40;18.67;;;14.10;99.90;;;;;;6255197;28;20045;-83
2022/05/06 05:18:14;;;;;;;38.42;16.95;;;14.10;99.90;;;;;;6252957;28;20049;-84
2022/05/06 05:21:16;;;;;;;47.22;20.83;;;14.20;99.90;;;;;;6252187;28;20180;-85
2022/05/06 05:24:18;;;;;;;46.47;20.23;;;14.30;99.90;;;;;;6252675;28;20071;-85
2022/05/06 05:27:21;;;;;;;45.53;19.83;;;14.30;99.90;;;;;;6252262;28;20053;-86
2022/05/06 05:30:23;;;;;;;41.42;17.23;;;14.30;99.90;;;;;;6292384;23;20057;-81
2022/05/06 05:33:25;;;;;;;37.17;17.13;;;14.40;99.90;;;;;;6232705;28;20120;-83
2022/05/06 05:36:27;;;;;;;38.45;17.88;;;14.40;99.90;;;;;;6239158;28;20410;-83
2022/05/06 05:39:31;;;;;;;36.05;16.52;;;14.50;99.90;;;;;;6251552;28;20490;-83
2022/05/06 05:42:34;;;;;;;31.08;16.60;;;14.60;99.90;;;;;;6252792;28;20060;-83
2022/05/06 05:48:55;;;;;;;38.40;16.15;;;14.80;99.90;;;;;;6251301;28;20045;-82
2022/05/06 05:51:57;;;;;;;27.10;15.35;;;14.90;99.90;;;;;;6252672;28;20080;-83
2022/05/06 05:54:58;;;;;;;26.98;13.52;;;14.90;99.90;;;;;;6251954;28;20521;-83
2022/05/06 05:58:02;;;;;;;23.80;12.68;;;15.10;99.90;;;;;;6250629;28;20077;-82
2022/05/06 06:01:05;;;;;;;21.92;11.18;;;15.10;99.90;;;;;;6251579;28;20069;-84
2022/05/06 06:04:06;;;;;;;25.58;10.57;;;15.20;99.80;;;;;;6251788;28;20041;-82
2022/05/06 06:07:08;;;;;;;19.13;9.85;;;15.20;98.10;;;;;;6251179;28;20045;-84
2022/05/06 06:10:10;;;;;;;13.85;8.13;;;15.30;98.60;;;;;;6251092;28;20140;-83
2022/05/06 06:13:16;;;;;;;18.17;8.20;;;15.30;99.00;;;;;;6253178;28;20057;-83
2022/05/06 06:16:19;;;;;;;16.13;9.27;;;15.40;97.30;;;;;;6252784;28;20164;-83
2022/05/06 06:19:21;;;;;;;18.58;7.65;;;15.40;97.30;;;;;;6251668;28;20053;-82
2022/05/06 06:22:23;;;;;;;12.40;8.30;;;15.40;97.00;;;;;;6252898;28;20641;-83
2022/05/06 06:25:25;;;;;;;12.80;7.18;;;15.40;97.40;;;;;;6249974;28;20195;-83
2022/05/06 06:28:28;;;;;;;12.30;6.85;;;15.50;97.60;;;;;;6231893;28;20172;-83
2022/05/06 06:31:31;;;;;;;14.02;7.30;;;15.50;97.40;;;;;;6212037;28;20049;-81
2022/05/06 06:34:33;;;;;;;16.92;6.97;;;15.50;96.70;;;;;;6209547;28;20050;-82
2022/05/06 06:37:38;;;;;;;12.82;6.60;;;15.50;97.20;;;;;;6246781;28;20053;-82
2022/05/06 06:40:39;;;;;;;12.07;6.82;;;15.60;97.40;;;;;;6249544;28;20461;-82
2022/05/06 06:43:43;;;;;;;12.05;6.72;;;15.70;96.40;;;;;;6250610;28;20097;-82
2022/05/06 06:46:44;;;;;;;12.05;6.32;;;15.70;96.80;;;;;;6250763;28;20422;-82
2022/05/06 06:49:46;;;;;;;9.95;5.97;;;15.80;96.60;;;;;;6251392;28;20049;-81
2022/05/06 06:52:48;;;;;;;10.45;6.30;;;15.90;95.70;;;;;;6251374;28;20046;-83
2022/05/06 06:55:50;;;;;;;11.45;5.38;;;16.00;96.10;;;;;;6252220;28;20630;-83
2022/05/06 06:58:53;;;;;;;17.42;6.88;;;16.10;96.10;;;;;;6249957;28;20046;-83
2022/05/06 07:01:55;;;;;;;12.15;6.05;;;16.10;95.90;;;;;;6219480;28;20551;-83
2022/05/06 07:04:57;;;;;;;8.48;5.30;;;16.20;95.90;;;;;;6228726;28;20041;-84
2022/05/06 07:14:39;;;;;;;13.98;6.72;;;16.20;95.90;;;;;;6225856;28;20488;-83
2022/05/06 07:17:41;;;;;;;11.88;5.82;;;16.30;96.30;;;;;;6225469;28;20081;-83
2022/05/06 07:20:43;;;;;;;10.02;5.90;;;16.20;95.10;;;;;;6224887;28;20176;-83
2022/05/06 07:23:45;;;;;;;10.65;5.50;;;16.20;96.00;;;;;;6224937;28;20403;-83
2022/05/06 07:26:46;;;;;;;13.45;6.40;;;16.30;95.40;;;;;;6225160;28;20111;-82
2022/05/06 07:29:50;;;;;;;10.90;5.47;;;16.20;94.30;;;;;;6225885;28;20499;-82
2022/05/06 07:32:51;;;;;;;14.13;5.35;;;16.10;94.20;;;;;;6229715;28;20101;-83
2022/05/06 07:35:53;;;;;;;10.40;5.32;;;16.10;94.80;;;;;;6230663;28;20557;-83
2022/05/06 07:38:55;;;;;;;11.73;5.63;;;16.30;95.60;;;;;;6230592;28;20538;-83
2022/05/06 07:41:57;;;;;;;9.07;4.57;;;16.50;95.40;;;;;;6230156;28;20046;-83
2022/05/06 07:45:00;;;;;;;11.57;5.07;;;16.60;95.30;;;;;;6230555;28;20046;-83
2022/05/06 07:48:04;;;;;;;7.35;4.53;;;16.70;95.10;;;;;;6232872;28;20042;-84
2022/05/06 07:51:06;;;;;;;8.13;4.85;;;16.90;94.20;;;;;;6229053;28;20487;-83
2022/05/06 07:54:08;;;;;;;11.23;4.95;;;17.00;94.40;;;;;;6228450;28;20045;-84
2022/05/06 07:57:10;;;;;;;8.48;5.13;;;17.10;94.20;;;;;;6230424;28;20052;-84
2022/05/06 08:00:14;;;;;;;12.07;5.03;;;17.20;93.90;;;;;;6231482;28;20046;-84
2022/05/06 08:06:35;;;;;;;9.07;4.85;;;17.40;93.50;;;;;;6230890;28;20050;-84
2022/05/06 08:09:38;;;;;;;9.00;5.43;;;17.50;93.70;;;;;;6228036;28;20128;-84
2022/05/06 08:12:40;;;;;;;10.57;5.15;;;17.70;93.60;;;;;;6227102;28;20065;-83
2022/05/06 08:15:43;;;;;;;9.80;4.90;;;17.90;92.50;;;;;;6227351;28;20048;-84
2022/05/06 08:18:45;;;;;;;6.82;4.40;;;18.00;92.90;;;;;;6227466;28;20092;-84
2022/05/06 08:21:47;;;;;;;5.88;3.65;;;18.20;92.50;;;;;;6226498;28;20057;-83
2022/05/06 08:24:49;;;;;;;12.60;4.82;;;18.40;91.00;;;;;;6226475;28;20180;-83
2022/05/06 08:27:51;;;;;;;7.65;5.10;;;18.40;90.80;;;;;;6225722;28;20046;-83
2022/05/06 08:30:54;;;;;;;7.80;4.78;;;18.40;90.00;;;;;;6226588;28;20054;-84
2022/05/06 08:33:57;;;;;;;7.53;4.10;;;18.40;90.30;;;;;;6226424;28;20046;-83
2022/05/06 08:36:59;;;;;;;10.50;4.90;;;18.70;90.90;;;;;;6226833;28;20128;-83
2022/05/06 08:40:01;;;;;;;9.85;4.05;;;18.90;87.80;;;;;;6226666;28;20049;-82
2022/05/06 08:43:04;;;;;;;9.85;4.10;;;19.10;87.80;;;;;;6225407;28;20045;-83
2022/05/06 08:52:43;;;;;;;5.82;4.03;;;19.60;87.30;;;;;;6203729;28;20058;-83
2022/05/06 08:55:44;;;;;;;7.50;3.40;;;20.20;86.30;;;;;;6226169;28;20099;-84
2022/05/06 08:58:46;;;;;;;9.77;3.90;;;20.80;83.10;;;;;;6227012;28;20054;-83
2022/05/06 09:01:49;;;;;;;11.18;4.07;;;21.10;78.10;;;;;;6203567;28;20054;-85
2022/05/06 09:04:51;;;;;;;6.00;3.78;;;21.20;79.00;;;;;;6200484;28;20069;-84
2022/05/06 09:07:57;;;;;;;9.70;4.25;;;21.50;75.20;;;;;;6200794;28;20039;-83
2022/05/06 09:11:00;;;;;;;9.52;4.05;;;22.00;73.50;;;;;;6221550;28;20103;-84
2022/05/06 09:14:03;;;;;;;9.93;4.13;;;22.50;72.60;;;;;;6225806;28;20042;-84
2022/05/06 09:17:18;;;;;;;6.40;3.95;;;23.50;70.20;;;;;;6224938;28;20444;-83
2022/05/06 09:20:20;;;;;;;8.30;3.42;;;24.70;65.30;;;;;;6225093;28;20045;-83
2022/05/06 09:23:25;;;;;;;9.80;3.33;;;24.90;62.60;;;;;;6207453;28;20054;-81
2022/05/06 09:26:27;;;;;;;5.53;3.00;;;25.30;59.20;;;;;;6205333;28;20071;-83
2022/05/06 09:29:37;;;;;;;7.57;3.00;;;25.10;57.40;;;;;;6233314;28;20057;-84
2022/05/06 09:32:40;;;;;;;6.80;3.00;;;24.50;59.90;;;;;;6240528;28;20045;-82
2022/05/06 09:35:42;;;;;;;6.32;2.47;;;24.40;60.60;;;;;;6224245;28;20045;-82
2022/05/06 09:39:01;;;;;;;6.03;3.10;;;24.80;60.50;;;;;;6225289;28;20177;-82
2022/05/06 09:42:04;;;;;;;7.45;3.42;;;25.60;57.60;;;;;;6245464;28;20045;-82
2022/05/06 09:45:07;;;;;;;8.48;3.38;;;25.50;55.80;;;;;;6249325;28;20045;-81
2022/05/06 09:48:12;;;;;;;7.03;2.58;;;25.40;54.40;;;;;;6249336;28;20057;-81
2022/05/06 09:51:26;;;;;;;4.78;3.05;;;25.00;56.50;;;;;;6249301;28;20057;-82
2022/05/06 09:54:32;;;;;;;7.38;3.60;;;25.30;55.20;;;;;;6250058;28;20045;-81
2022/05/06 09:57:37;;;;;;;7.47;2.80;;;25.00;54.70;;;;;;6249576;28;20419;-81
2022/05/06 10:00:39;;;;;;;4.97;2.40;;;24.50;56.00;;;;;;6240859;28;20124;-81
2022/05/06 10:03:42;;;;;;;7.78;3.03;;;24.30;57.00;;;;;;6244133;28;20064;-84
2022/05/06 10:06:44;;;;;;;6.20;2.80;;;24.20;57.90;;;;;;6226048;28;20050;-84
2022/05/06 10:09:59;;;;;;;11.85;2.70;;;23.90;58.10;;;;;;6218016;28;20120;-83
2022/05/06 10:13:06;;;;;;;9.10;2.63;;;24.00;59.10;;;;;;6199485;28;20052;-84
2022/05/06 10:16:08;;;;;;;5.80;2.47;;;24.20;58.40;;;;;;6199543;28;20675;-83
2022/05/06 10:19:26;;;;;;;7.75;2.42;;;24.40;58.20;;;;;;6200003;28;20177;-82
2022/05/06 10:22:59;;;;;;;5.05;2.25;;;24.70;56.70;;;;;;6201565;28;20054;-84
2022/05/06 10:26:01;;;;;;;3.20;1.98;;;25.00;56.80;;;;;;6205182;28;20046;-83
2022/05/06 10:32:58;;;;;;;3.63;1.77;;;25.70;55.30;;;;;;6212998;28;20057;-83
2022/05/06 10:36:01;;;;;;;4.00;1.13;;;25.80;52.30;;;;;;6222899;28;20054;-84
2022/05/06 10:39:18;;;;;;;6.65;1.85;;;25.50;52.90;;;;;;6223785;28;20049;-83
2022/05/06 10:42:32;;;;;;;5.97;2.20;;;25.60;51.00;;;;;;6225158;28;20120;-83
2022/05/06 10:45:35;;;;;;;5.70;2.75;;;25.60;49.10;;;;;;6225764;28;20412;-83
2022/05/06 10:48:37;;;;;;;3.67;0.90;;;25.40;49.20;;;;;;6223298;28;20092;-84
2022/05/06 10:51:40;;;;;;;4.80;1.38;;;25.20;49.20;;;;;;6223983;28;20523;-83
2022/05/06 10:54:42;;;;;;;2.75;1.13;;;25.40;48.90;;;;;;6226358;28;20522;-84
2022/05/06 10:57:59;;;;;;;2.38;0.90;;;25.20;47.10;;;;;;6224084;28;20188;-83
2022/05/06 11:01:01;;;;;;;1.77;0.88;;;25.10;46.20;;;;;;6222859;28;20056;-81
2022/05/06 11:04:03;;;;;;;3.13;0.65;;;25.10;44.90;;;;;;6222638;28;20049;-82
2022/05/06 11:07:13;;;;;;;3.70;1.00;;;25.30;44.70;;;;;;6223008;28;20488;-82
2022/05/06 11:10:17;;;;;;;3.50;0.90;;;25.70;43.70;;;;;;6223933;28;20053;-82
2022/05/06 11:13:19;;;;;;;3.28;1.52;;;26.00;42.30;;;;;;6223033;28;20045;-83
2022/05/06 11:16:21;;;;;;;3.42;0.60;;;26.00;41.90;;;;;;6223146;28;20049;-82
2022/05/06 11:19:33;;;;;;;3.92;0.60;;;26.00;40.90;;;;;;6222281;28;20496;-82
2022/05/06 11:22:38;;;;;;;4.40;1.85;;;26.10;42.10;;;;;;6226928;28;20056;-82
2022/05/06 11:25:43;;;;;;;1.98;0.68;;;26.40;42.40;;;;;;6224392;28;20507;-83
2022/05/06 11:29:01;;;;;;;7.78;0.80;;;26.70;40.50;;;;;;6223866;28;20462;-83
2022/05/06 11:32:03;;;;;;;1.50;0.70;;;27.00;40.10;;;;;;6217273;28;20042;-83
2022/05/06 11:35:11;;;;;;;5.47;0.75;;;26.80;39.10;;;;;;6205489;28;20054;-82
2022/05/06 11:38:15;;;;;;;2.47;0.57;;;26.50;39.20;;;;;;6226473;28;20050;-82
2022/05/06 11:41:18;;;;;;;3.50;0.60;;;26.50;39.20;;;;;;6223269;28;20139;-83
2022/05/06 11:47:27;;;;;;;2.30;0.52;;;26.70;37.60;;;;;;6222829;28;20060;-82
2022/05/06 11:47:48;;;;;;;3.42;0.95;;;26.50;37.00;;;;;;6222789;28;20120;-82
2022/05/06 11:50:56;;;;;;;1.45;0.60;;;26.30;38.00;;;;;;6227356;28;20050;-82
2022/05/06 11:54:00;;;;;;;4.65;0.50;;;26.50;37.90;;;;;;6224522;28;20046;-82
2022/05/06 11:57:02;;;;;;;1.10;0.38;;;26.60;37.00;;;;;;6223626;28;20049;-82
2022/05/06 12:00:06;;;;;;;1.83;0.55;;;26.40;37.20;;;;;;6224072;28;20078;-82
2022/05/06 12:03:09;;;;;;;2.53;0.80;;;26.10;37.00;;;;;;6223794;28;20068;-82
2022/05/06 12:06:11;;;;;;;5.47;0.68;;;25.90;37.50;;;;;;6224022;28;20045;-81
2022/05/06 12:09:16;;;;;;;2.28;0.57;;;25.70;37.60;;;;;;6223323;28;20065;-82
2022/05/06 12:12:18;;;;;;;6.20;0.55;;;25.60;38.10;;;;;;6224010;28;20053;-81
2022/05/06 12:15:20;;;;;;;8.10;0.82;;;25.50;37.40;;;;;;6224788;28;20054;-81
2022/05/06 12:18:22;;;;;;;3.45;0.50;;;25.20;37.80;;;;;;6229167;28;20056;-81
2022/05/06 12:21:26;;;;;;;1.38;0.50;;;25.00;39.40;;;;;;6252381;28;20153;-81
2022/05/06 12:24:40;;;;;;;1.05;0.40;;;25.10;38.70;;;;;;6230449;28;20133;-83
2022/05/06 12:27:41;;;;;;;1.83;0.22;;;25.20;37.10;;;;;;6231002;28;20133;-80
2022/05/06 12:30:44;;;;;;;1.85;0.70;;;25.30;36.20;;;;;;6230511;28;20049;-81
2022/05/06 12:33:46;;;;;;;3.10;0.60;;;25.50;36.70;;;;;;6231141;28;20066;-82
2022/05/06 12:36:49;;;;;;;4.10;0.88;;;25.80;36.20;;;;;;6230578;28;20124;-81
2022/05/06 12:39:52;;;;;;;2.15;0.68;;;25.90;34.80;;;;;;6229727;28;20053;-82
2022/05/06 12:43:04;;;;;;;3.38;0.50;;;26.00;36.60;;;;;;6230951;28;20049;-82
2022/05/06 12:46:06;;;;;;;4.47;0.60;;;26.30;35.30;;;;;;6255601;28;20052;-81
2022/05/06 12:52:27;;;;;;;2.58;0.55;;;26.40;36.80;;;;;;6253999;28;20509;-82
2022/05/06 12:55:30;;;;;;;1.60;0.47;;;26.90;35.90;;;;;;6253808;28;20910;-81
2022/05/06 12:58:32;;;;;;;2.05;0.82;;;26.80;34.70;;;;;;6255727;28;20188;-81
2022/05/06 13:01:35;;;;;;;3.78;0.50;;;26.60;35.30;;;;;;6244434;28;20042;-81
2022/05/06 13:04:37;;;;;;;2.00;0.50;;;26.80;35.90;;;;;;6230429;28;20430;-81
2022/05/06 13:07:39;;;;;;;1.98;0.60;;;27.20;34.70;;;;;;6226415;28;20440;-82
2022/05/06 13:10:42;;;;;;;3.80;0.52;;;27.20;35.50;;;;;;6226192;28;20046;-81
2022/05/06 13:13:44;;;;;;;6.93;0.60;;;27.30;34.40;;;;;;6229210;28;20188;-83
2022/05/06 13:16:45;;;;;;;2.20;0.60;;;26.80;34.10;;;;;;6228586;28;20125;-81
2022/05/06 13:19:47;;;;;;;5.20;0.38;;;26.50;33.80;;;;;;6228048;28;20042;-81
2022/05/06 13:22:49;;;;;;;3.45;0.60;;;26.10;34.00;;;;;;6229504;28;20054;-81
2022/05/06 13:25:52;;;;;;;2.50;0.35;;;25.80;34.70;;;;;;6228778;28;20042;-80
2022/05/06 13:28:54;;;;;;;2.38;0.57;;;25.70;36.10;;;;;;6226904;28;20511;-82
2022/05/06 13:31:56;;;;;;;2.40;0.50;;;25.70;35.40;;;;;;6220737;28;20061;-83
2022/05/06 13:34:57;;;;;;;2.65;0.55;;;25.20;35.90;;;;;;6233010;28;20058;-82
2022/05/06 13:37:59;;;;;;;2.70;0.40;;;24.80;36.40;;;;;;6227198;28;20073;-81
2022/05/06 13:41:02;;;;;;;1.30;0.68;;;24.50;36.20;;;;;;6228213;28;20053;-80
2022/05/06 13:44:05;;;;;;;1.10;0.40;;;24.40;36.80;;;;;;6230268;28;20049;-80
2022/05/06 13:47:08;;;;;;;2.90;0.45;;;24.20;37.60;;;;;;6230484;28;20065;-81
2022/05/06 13:50:11;;;;;;;0.95;0.60;;;24.00;37.90;;;;;;6230753;28;20510;-80
2022/05/06 13:53:12;;;;;;;0.98;0.63;;;24.00;38.10;;;;;;6230934;28;20053;-81
2022/05/06 13:59:35;;;;;;;2.45;0.38;;;24.30;37.70;;;;;;6222807;28;20039;-82
2022/05/06 14:02:37;;;;;;;1.45;0.73;;;24.60;38.10;;;;;;6223525;28;20056;-81
2022/05/06 14:05:41;;;;;;;2.75;0.32;;;24.80;37.40;;;;;;6226922;28;20164;-82
2022/05/06 14:08:43;;;;;;;4.47;0.80;;;25.10;37.10;;;;;;6240007;28;20053;-81
2022/05/06 14:11:46;;;;;;;1.10;0.52;;;25.10;37.20;;;;;;6247083;28;20038;-80
2022/05/06 14:14:48;;;;;;;3.42;1.10;;;24.70;36.30;;;;;;6227779;28;20053;-82
2022/05/06 14:17:49;;;;;;;2.15;0.52;;;24.30;36.80;;;;;;6224346;28;20656;-81
2022/05/06 14:20:51;;;;;;;1.50;0.68;;;24.20;37.30;;;;;;6226023;28;20052;-82
2022/05/06 14:23:54;;;;;;;3.10;0.50;;;24.30;37.70;;;;;;6227236;28;20056;-81
2022/05/06 14:26:57;;;;;;;2.45;0.43;;;24.50;38.10;;;;;;6226917;28;20514;-82
2022/05/06 14:29:59;;;;;;;1.65;0.60;;;24.70;38.50;;;;;;6211749;28;20046;-83
2022/05/06 14:33:00;;;;;;;1.73;0.35;;;24.70;38.60;;;;;;6227557;28;20128;-83
2022/05/06 14:36:05;;;;;;;0.95;0.50;;;24.70;37.20;;;;;;6229218;28;20050;-83
2022/05/06 14:39:06;;;;;;;4.43;0.60;;;24.50;37.80;;;;;;6220229;28;20112;-81
2022/05/06 14:42:10;;;;;;;3.33;1.08;;;24.70;38.70;;;;;;6226623;28;20054;-81
2022/05/06 14:45:12;;;;;;;2.20;0.85;;;25.10;37.60;;;;;;6237419;28;20098;-81
2022/05/06 14:48:14;;;;;;;1.08;0.30;;;25.00;38.00;;;;;;6235636;28;20038;-83
2022/05/06 14:51:16;;;;;;;1.48;0.50;;;25.10;37.90;;;;;;6225014;28;20077;-81
2022/05/06 14:54:20;;;;;;;2.15;0.63;;;25.30;37.30;;;;;;6227044;28;20053;-81
2022/05/06 14:57:27;;;;;;;2.20;0.60;;;25.00;36.70;;;;;;6228917;28;20120;-82
2022/05/06 15:00:29;;;;;;;1.67;0.40;;;25.00;37.20;;;;;;6225243;28;20132;-82
2022/05/06 15:03:31;;;;;;;6.40;0.43;;;25.10;38.00;;;;;;6227997;28;20647;-81
2022/05/06 15:06:33;;;;;;;3.50;0.65;;;25.10;37.90;;;;;;6229318;28;20054;-82
2022/05/06 15:09:38;;;;;;;1.77;0.68;;;25.40;38.70;;;;;;6227966;28;20042;-81
2022/05/06 15:12:42;;;;;;;1.05;0.55;;;25.60;36.30;;;;;;6230218;28;20056;-81
2022/05/06 15:15:43;;;;;;;1.08;0.50;;;25.70;37.10;;;;;;6236418;28;20408;-81
2022/05/06 15:22:19;;;;;;;0.80;0.40;;;25.60;36.60;;;;;;6173232;28;20054;-82
2022/05/06 15:25:21;;;;;;;3.10;0.68;;;25.50;36.70;;;;;;6166003;28;20062;-82
2022/05/06 15:28:24;;;;;;;2.88;0.60;;;25.30;37.00;;;;;;6239546;28;20060;-82
2022/05/06 15:31:28;;;;;;;1.35;0.57;;;25.00;36.70;;;;;;6225062;28;20049;-82
2022/05/06 15:34:29;;;;;;;0.88;0.50;;;24.80;37.80;;;;;;6247749;28;20501;-82
2022/05/06 15:37:31;;;;;;;1.80;0.68;;;25.00;37.00;;;;;;6236592;28;20532;-82
2022/05/06 15:40:33;;;;;;;1.85;0.70;;;24.90;37.10;;;;;;6236322;28;20502;-82
2022/05/06 15:43:38;;;;;;;2.45;1.08;;;25.00;37.20;;;;;;6240403;28;20045;-82
2022/05/06 15:46:40;;;;;;;3.90;0.50;;;24.90;37.90;;;;;;6251190;28;20053;-82
2022/05/06 15:49:42;;;;;;;1.73;0.65;;;25.30;37.80;;;;;;6248701;28;20049;-82
2022/05/06 15:52:45;;;;;;;5.78;0.50;;;25.50;37.00;;;;;;6248513;28;20045;-82
2022/05/06 15:55:48;;;;;;;1.52;0.43;;;25.50;37.10;;;;;;6245437;28;20042;-83
2022/05/06 15:58:51;;;;;;;5.55;1.08;;;25.40;37.60;;;;;;6254137;28;20147;-82
2022/05/06 16:01:53;;;;;;;2.47;0.47;;;25.40;36.80;;;;;;6229967;28;20105;-81
2022/05/06 16:04:55;;;;;;;3.05;0.85;;;25.20;37.50;;;;;;6229630;28;20046;-81
2022/05/06 16:07:57;;;;;;;2.35;0.60;;;25.30;37.40;;;;;;6228790;28;20042;-81
2022/05/06 16:10:59;;;;;;;1.08;0.60;;;25.30;37.30;;;;;;6228933;28;20054;-81
2022/05/06 16:14:02;;;;;;;4.97;0.90;;;25.10;37.20;;;;;;6205658;28;20049;-82
2022/05/06 16:17:05;;;;;;;3.88;0.52;;;24.80;37.30;;;;;;6205018;28;20058;-82
2022/05/06 16:20:08;;;;;;;0.93;0.40;;;24.80;38.20;;;;;;6203689;28;20038;-81
2022/05/06 16:23:10;;;;;;;1.52;0.60;;;24.90;37.70;;;;;;6206913;28;20177;-81